CanjetBLOCKVirtuelBLOCKQcBLOCKBLOCKBLOCKBLOCKBLOCKBLOCKBLOCKBLOCKBLOCKBLOCKBLOCKvolsBLOCKavecBLOCKFS-kACARS2020-09-30BLOCK05colon30am

volsBLOCKBLOCKBLOCKBLOCKBLOCKpilotesBLOCKBLOCKBLOCKBLOCKBLOCKBLOCKBLOCKBLOCKtypeBLOCKBLOCKdepBLOCKBLOCKarrBLOCKBLOCKBLOCKBLOCKBLOCKaltBLOCKBLOCKBLOCKBLOCKBLOCKgsBLOCKBLOCKBLOCKBLOCKstatut

CJA9999YvanBLOCKRB77LCYEG-OTHH35161ft474kts11colon32am
CJA7102StephaneBLOCKGA388CYUL-OMAA14324ft402kts07colon44pm











BLOCKAppuyerBLOCKsurBLOCKF5BLOCKpourBLOCKactualiserBLOCKBLOCKBLOCKMiseBLOCKaBLOCKjourcolonBLOCK05colon30colon00amCanjetBLOCKvirtuelBLOCKQC

Bienvenue chez Canjetvirtuel-Q

Publié par Michel Ayotte le 2013-06-14

 

Canjetvirtuel-Québec est une compagnie aérienne virtuelle qui a été fondée par 2 passionnés de la simulation de vol.

Elle est opérée avec les Boeing 737. Exceptionnelement et pour votre plaisir tous les autres versions de Boeing et Airbus sont autorisées.

Ces appareils pouvant faire des vols cargos ou des vols passagers,que ce soit au Canada, Europe, États-Unis, Mexique et Caraïbes.

Vous trouverez votre place comme pilote chez nous!



Avis

Aux fins de la simulation de vol seulement. CanjetVirtuel Québec n'est en aucun cas affilié avec n'importe quelle compagnie aérienne du monde réel. CanjetVirtuel Québec est un site à but non lucratif gérée par des amateurs de simulation de vol. Toutes les images sont la propriété exclusive de leurs propriétaires respectifs.
| propulsé par phpVMS, © 2013-2020.

Notice

For flight simulation purposes only. CanjetVirtuel Quebec is in no way affiliated with any real world airline. CanjetVirtuel Quebec is a non-profit site run by flight simulation enthusiasts. All images are the sole property of their respective owners.
| powered by phpVMS, © 2013-2020.

Affiliations

Vatsim

Les statistiques du site

Nombre de pilotes: 15
Total des vols effectués: 6782
Trajets disponibles: 682
Passagers transportés: 1815075
Total des heures de vol: 22594
Distance totale (NM): 8822211
Pilotes en ligne: 3

Nouvelles

Bienvenue chez Canjetvirtuel-Q
06/14/2013

METAR

CYHZ 300900Z 17010KT 1/4SM R23/1800FT/N R14/2200FT/N FG VV001 18/18 A2995 RMK FG8 SLP145 DENSITY ALT 900FT

CYQB 300900Z 07015KT 4SM -RA BR BKN005 14/13 A2944 RMK SF8 PRESFR SLP973 DENSITY ALT 700FT

CYUL 300900Z 26003KT 10SM -RA FEW010 OVC055 13/12 A2947 RMK SF1SC8 SF TR SLP982 DENSITY ALT 400FT

CYYZ 300900Z 25006KT 15SM SCT080 BKN140 12/10 A2956 RMK AC3AC3 SLP010 DENSITY ALT 800FT